Terminal Aerodrome Forecast
Issued by NWS

Home | Current Version | Previous Version | Text Only | Print | Product List | Glossary On
Versions: 1 2 3 4 5 6 7 8 9 10 11 12
000
FTUS45 KREV 011726
TAFCXP
TAF
KCXP 011726Z 0118/0218 24012G22KT P6SM FEW100
     FM012000 27014G25KT P6SM SKC
     FM020400 29007KT P6SM SKC=

USA.gov is the U.S. government's official web portal to all federal, state and local government web resources and services.